createdAt,value
2023-03-16T00:00:21.757Z,100590.27
2023-03-16T00:03:10.961Z,100591.65
2023-03-16T00:05:38.875Z,100595.45
2023-03-16T00:08:06.666Z,100597.05
2023-03-16T00:10:34.738Z,100600.55
2023-03-16T00:13:02.934Z,100603.09
2023-03-16T00:15:30.708Z,100603.73
2023-03-16T00:17:58.451Z,100606.33
2023-03-16T00:20:27.880Z,100610.35
2023-03-16T00:22:55.820Z,100613.52
2023-03-16T00:25:24.375Z,100616.23
2023-03-16T00:27:52.422Z,100619.45
2023-03-16T00:30:20.170Z,100621.19
2023-03-16T00:32:47.922Z,100622.72
2023-03-16T00:35:18.317Z,100623.32
2023-03-16T00:37:46.182Z,100625.05
2023-03-16T00:40:15.288Z,100626.13
2023-03-16T00:42:44.327Z,100624.52
2023-03-16T00:45:12.294Z,100625.77
2023-03-16T00:47:40.024Z,100628.64
2023-03-16T00:50:08.352Z,100627.52
2023-03-16T00:52:36.098Z,100631.62
2023-03-16T00:55:04.809Z,100631.61
2023-03-16T00:57:32.792Z,100630.96
2023-03-16T01:00:02.284Z,100636.85
2023-03-16T01:02:30.037Z,100639.81
2023-03-16T01:04:58.469Z,100642.55
2023-03-16T01:07:26.954Z,100645.09
2023-03-16T01:09:54.745Z,100643.80
2023-03-16T01:12:22.757Z,100646.92
2023-03-16T01:14:50.518Z,100645.52
2023-03-16T01:17:18.445Z,100650.85
2023-03-16T01:19:46.488Z,100654.26
2023-03-16T01:22:15.172Z,100652.67
2023-03-16T01:24:47.014Z,100655.70
2023-03-16T01:27:15.145Z,100658.52
2023-03-16T01:29:43.830Z,100657.20
2023-03-16T01:32:12.937Z,100663.89
2023-03-16T01:34:41.569Z,100664.32
2023-03-16T01:37:09.825Z,100669.91
2023-03-16T01:39:43.782Z,100671.29
2023-03-16T01:42:13.872Z,100672.55
2023-03-16T01:45:05.922Z,100677.52
2023-03-16T01:47:39.544Z,100677.89
2023-03-16T01:50:13.980Z,100677.44
2023-03-16T01:52:43.117Z,100680.30
2023-03-16T01:55:13.475Z,100683.51
2023-03-16T01:57:44.080Z,100678.49
2023-03-16T02:00:22.085Z,100680.04
2023-03-16T02:03:06.249Z,100681.98
2023-03-16T02:06:01.537Z,100684.66
2023-03-16T02:08:31.628Z,100682.17
2023-03-16T02:11:00.123Z,100682.55
2023-03-16T02:13:38.535Z,100685.67
2023-03-16T02:16:07.825Z,100692.38
2023-03-16T02:18:36.316Z,100690.25
2023-03-16T02:21:04.326Z,100691.45
2023-03-16T02:23:33.164Z,100689.98
2023-03-16T02:26:22.986Z,100694.81
2023-03-16T02:29:01.297Z,100695.25
2023-03-16T02:31:30.599Z,100697.83
2023-03-16T02:33:59.262Z,100696.05
2023-03-16T02:36:27.847Z,100695.52
2023-03-16T02:38:55.669Z,100697.06
2023-03-16T02:41:23.905Z,100698.02
2023-03-16T02:44:10.890Z,100699.02
2023-03-16T02:46:43.475Z,100700.63
2023-03-16T02:49:20.744Z,100701.98
2023-03-16T02:51:48.586Z,100701.58
2023-03-16T02:54:19.073Z,100702.21
2023-03-16T02:56:46.924Z,100704.79
2023-03-16T02:59:15.109Z,100708.05
2023-03-16T03:01:42.937Z,100713.05
2023-03-16T03:04:11.568Z,100711.42
2023-03-16T03:06:39.783Z,100711.85
2023-03-16T03:09:11.604Z,100710.84
2023-03-16T03:11:41.384Z,100711.73
2023-03-16T03:14:09.193Z,100715.05
2023-03-16T03:16:37.906Z,100715.89
2023-03-16T03:19:05.846Z,100716.98
2023-03-16T03:21:36.801Z,100720.19
2023-03-16T03:24:06.097Z,100720.40
2023-03-16T03:26:35.306Z,100724.23
2023-03-16T03:29:04.444Z,100727.33
2023-03-16T03:31:34.138Z,100724.52
2023-03-16T03:34:06.772Z,100725.52
2023-03-16T03:36:36.248Z,100728.32
2023-03-16T03:39:05.273Z,100726.19
2023-03-16T03:41:33.945Z,100726.57
2023-03-16T03:44:04.439Z,100721.69
2023-03-16T03:46:32.684Z,100724.00
2023-03-16T03:49:03.837Z,100724.20
2023-03-16T03:51:33.868Z,100728.33
2023-03-16T03:54:11.897Z,100725.81
2023-03-16T03:56:56.067Z,100730.11
2023-03-16T03:59:24.129Z,100732.67
2023-03-16T04:02:05.541Z,100735.44
2023-03-16T04:04:41.691Z,100737.21
2023-03-16T04:07:11.354Z,100737.92
2023-03-16T04:09:41.934Z,100738.40
2023-03-16T04:12:12.272Z,100737.89
2023-03-16T04:14:40.071Z,100735.74
2023-03-16T04:17:09.334Z,100742.94
2023-03-16T04:19:39.924Z,100744.02
2023-03-16T04:22:13.012Z,100746.75
2023-03-16T04:24:43.222Z,100749.98
2023-03-16T04:27:12.512Z,100750.61
2023-03-16T04:29:40.951Z,100755.97
2023-03-16T04:32:09.844Z,100758.96
2023-03-16T04:34:42.125Z,100763.68
2023-03-16T04:37:10.498Z,100769.27
2023-03-16T04:39:44.088Z,100766.36
2023-03-16T04:42:12.562Z,100766.71
2023-03-16T04:44:44.471Z,100769.15
2023-03-16T04:47:15.632Z,100772.77
2023-03-16T04:49:44.923Z,100772.33
2023-03-16T04:52:13.627Z,100772.39
2023-03-16T04:54:41.814Z,100771.81
2023-03-16T04:57:10.685Z,100768.70
2023-03-16T04:59:45.434Z,100771.77
2023-03-16T05:02:20.973Z,100778.09
2023-03-16T05:04:49.553Z,100775.80
2023-03-16T05:07:18.273Z,100778.75
2023-03-16T05:09:50.007Z,100780.76
2023-03-16T05:12:18.305Z,100783.00
2023-03-16T05:14:46.286Z,100782.15
2023-03-16T05:17:22.241Z,100783.88
2023-03-16T05:19:50.690Z,100781.70
2023-03-16T05:22:19.265Z,100779.34
2023-03-16T05:25:05.695Z,100782.85
2023-03-16T05:27:35.197Z,100784.24
2023-03-16T05:30:03.995Z,100783.45
2023-03-16T05:32:32.689Z,100789.38
2023-03-16T05:35:00.568Z,100787.74
2023-03-16T05:37:29.023Z,100792.00
2023-03-16T05:39:58.641Z,100795.20
2023-03-16T05:42:29.568Z,100798.61
2023-03-16T05:45:01.691Z,100805.49
2023-03-16T05:47:37.893Z,100803.73
2023-03-16T05:50:11.211Z,100805.61
2023-03-16T05:52:40.574Z,100809.13
2023-03-16T05:55:16.230Z,100814.70
2023-03-16T05:57:45.378Z,100815.40
2023-03-16T06:00:15.914Z,100815.48
2023-03-16T06:02:49.411Z,100815.98
2023-03-16T06:05:19.746Z,100818.22
2023-03-16T06:07:50.194Z,100811.46
2023-03-16T06:10:19.237Z,100816.69
2023-03-16T06:12:47.289Z,100819.05
2023-03-16T06:15:15.158Z,100821.30
2023-03-16T06:17:43.180Z,100825.38
2023-03-16T06:20:13.450Z,100828.02
2023-03-16T06:22:42.900Z,100828.92
2023-03-16T06:25:12.757Z,100832.94
2023-03-16T06:27:42.616Z,100834.42
2023-03-16T06:30:14.174Z,100834.20
2023-03-16T06:32:42.538Z,100835.68
2023-03-16T06:35:10.435Z,100837.95
2023-03-16T06:37:41.557Z,100836.96
2023-03-16T06:40:32.144Z,100841.20
2023-03-16T06:43:00.588Z,100843.92
2023-03-16T06:45:28.554Z,100846.79
2023-03-16T06:47:56.905Z,100848.69
2023-03-16T06:50:24.708Z,100852.64
2023-03-16T06:52:52.738Z,100854.53
2023-03-16T06:55:21.011Z,100853.09
2023-03-16T06:57:50.046Z,100856.48
2023-03-16T07:00:20.496Z,100858.92
2023-03-16T07:02:48.448Z,100862.98
2023-03-16T07:05:34.132Z,100866.86
2023-03-16T07:08:19.772Z,100866.66
2023-03-16T07:10:51.097Z,100865.60
2023-03-16T07:13:21.244Z,100868.52
2023-03-16T07:15:52.182Z,100869.14
2023-03-16T07:18:26.134Z,100874.70
2023-03-16T07:20:55.504Z,100879.12
2023-03-16T07:23:25.801Z,100876.90
2023-03-16T07:25:56.390Z,100875.84
2023-03-16T07:28:25.623Z,100879.00
2023-03-16T07:31:03.321Z,100883.27
2023-03-16T07:33:36.309Z,100878.98
2023-03-16T07:36:10.694Z,100883.08
2023-03-16T07:38:42.690Z,100881.77
2023-03-16T07:41:14.001Z,100883.20
2023-03-16T07:43:46.979Z,100885.98
2023-03-16T07:46:15.898Z,100890.86
2023-03-16T07:48:45.428Z,100890.98
2023-03-16T07:51:14.320Z,100893.73
2023-03-16T07:53:43.879Z,100893.23
2023-03-16T07:56:21.587Z,100894.25
2023-03-16T07:58:56.230Z,100896.79
2023-03-16T08:01:24.662Z,100901.17
2023-03-16T08:03:53.993Z,100902.20
2023-03-16T08:06:25.965Z,100905.89
2023-03-16T08:08:55.226Z,100904.71
2023-03-16T08:11:31.014Z,100905.50
2023-03-16T08:14:04.280Z,100906.19
2023-03-16T08:16:51.707Z,100904.29
2023-03-16T08:19:20.542Z,100909.16
2023-03-16T08:22:01.438Z,100906.66
2023-03-16T08:24:37.532Z,100902.16
2023-03-16T08:27:09.391Z,100906.44
2023-03-16T08:29:40.761Z,100909.23
2023-03-16T08:32:13.180Z,100908.80
2023-03-16T08:34:45.921Z,100909.33
2023-03-16T08:37:14.770Z,100913.59
2023-03-16T08:39:46.733Z,100913.80
2023-03-16T08:42:22.361Z,100913.75
2023-03-16T08:44:56.045Z,100913.16
2023-03-16T08:47:25.889Z,100916.62
2023-03-16T08:49:57.398Z,100913.33
2023-03-16T08:52:28.012Z,100913.56
2023-03-16T08:55:03.367Z,100910.91
2023-03-16T08:57:33.747Z,100911.04
2023-03-16T14:02:43.925Z,100848.87
2023-03-16T14:05:22.087Z,100849.67
2023-03-16T14:07:51.430Z,100848.52
2023-03-16T14:10:21.078Z,100842.29
2023-03-16T14:12:53.569Z,100833.59
2023-03-16T14:15:23.894Z,100834.06
2023-03-16T14:17:52.444Z,100835.45
2023-03-16T14:20:23.301Z,100835.55
2023-03-16T14:22:52.788Z,100836.36
2023-03-16T14:25:23.699Z,100830.04
2023-03-16T14:28:06.233Z,100828.05
2023-03-16T14:34:54.619Z,100819.41
2023-03-16T14:37:23.037Z,100815.37
2023-03-16T14:40:26.269Z,100819.67
2023-03-16T14:42:56.190Z,100811.42
2023-03-16T14:45:35.937Z,100809.83
2023-03-16T14:48:07.420Z,100811.90
2023-03-16T14:54:55.310Z,100806.61
2023-03-16T14:57:23.293Z,100803.42
2023-03-16T14:59:52.488Z,100802.05
2023-03-16T15:02:27.168Z,100803.34
2023-03-16T15:04:56.723Z,100800.77
2023-03-16T15:07:26.834Z,100806.19
2023-03-16T15:09:57.481Z,100803.73
2023-03-16T15:12:26.210Z,100803.34
2023-03-16T15:15:12.676Z,100800.30
2023-03-16T15:17:40.850Z,100800.61
2023-03-16T15:20:12.308Z,100805.31
2023-03-16T15:22:40.644Z,100804.93
2023-03-16T15:25:11.769Z,100807.55
2023-03-16T15:27:39.638Z,100803.21
2023-03-16T15:30:16.386Z,100801.85
2023-03-16T15:32:44.550Z,100802.86
2023-03-16T15:35:12.683Z,100799.83
2023-03-16T15:37:40.804Z,100801.64
2023-03-16T15:40:16.094Z,100803.45
2023-03-16T15:42:46.789Z,100805.29
2023-03-16T15:45:20.824Z,100808.58
2023-03-16T15:47:50.219Z,100807.96
2023-03-16T15:50:21.987Z,100807.94
2023-03-16T15:52:53.569Z,100802.88
2023-03-16T15:55:24.266Z,100803.44
2023-03-16T15:57:58.756Z,100800.17
2023-03-16T16:00:28.776Z,100802.55
2023-03-16T16:02:57.856Z,100805.13
2023-03-16T16:05:25.968Z,100808.73
2023-03-16T16:07:54.879Z,100807.45
2023-03-16T16:37:37.710Z,100809.58
2023-03-16T16:40:37.260Z,100814.02
2023-03-16T16:44:47.764Z,100812.88
2023-03-16T19:09:16.928Z,100858.59
2023-03-16T19:19:29.644Z,100861.48
2023-03-16T19:49:21.796Z,100882.95
2023-03-16T20:02:40.400Z,100897.98
2023-03-16T20:05:16.727Z,100899.66
2023-03-16T20:07:44.601Z,100896.84
2023-03-16T20:10:22.300Z,100897.33
2023-03-16T20:12:53.551Z,100897.02
2023-03-16T20:15:22.588Z,100892.98
2023-03-16T20:17:50.607Z,100886.55
2023-03-16T20:20:29.794Z,100885.38
2023-03-16T20:22:59.678Z,100886.19
2023-03-16T20:25:32.374Z,100883.42
2023-03-16T20:28:02.147Z,100881.09
2023-03-16T20:30:30.834Z,100873.98
2023-03-16T20:32:58.782Z,100877.52
2023-03-16T20:35:31.223Z,100874.52
2023-03-16T20:37:59.271Z,100867.33
2023-03-16T20:40:27.060Z,100865.84
2023-03-16T20:42:55.019Z,100861.17
2023-03-16T20:45:27.177Z,100863.35
2023-03-16T20:47:55.034Z,100860.42
2023-03-16T20:50:29.282Z,100862.20
2023-03-16T20:52:57.497Z,100869.41
2023-03-16T20:55:27.238Z,100871.11
2023-03-16T20:57:56.464Z,100870.54
2023-03-16T21:00:34.695Z,100866.23
2023-03-16T21:03:05.166Z,100862.66
2023-03-16T21:05:33.831Z,100865.55
2023-03-16T21:08:01.612Z,100864.09
2023-03-16T21:10:30.900Z,100855.95
2023-03-16T21:12:59.042Z,100855.66
2023-03-16T21:15:30.342Z,100851.96
2023-03-16T21:18:00.809Z,100842.35
2023-03-16T21:20:32.118Z,100832.86
2023-03-16T21:23:00.807Z,100831.60
2023-03-16T21:25:30.960Z,100828.66
2023-03-16T21:28:02.284Z,100825.48
2023-03-16T21:30:32.069Z,100826.42
2023-03-16T21:33:01.919Z,100829.14
2023-03-16T21:35:35.902Z,100834.40
2023-03-16T21:38:18.259Z,100831.29
2023-03-16T21:40:47.128Z,100831.49
2023-03-16T21:43:15.706Z,100836.59
2023-03-16T21:45:44.320Z,100837.67
2023-03-16T21:48:20.212Z,100833.63
2023-03-16T21:50:48.544Z,100826.70
2023-03-16T21:53:34.314Z,100823.60
2023-03-16T21:56:02.041Z,100830.73
2023-03-16T21:58:29.775Z,100834.29
2023-03-16T22:00:58.504Z,100835.52
2023-03-16T22:03:47.950Z,100836.15
2023-03-16T22:06:18.169Z,100834.66
2023-03-16T22:08:46.496Z,100831.91
2023-03-16T22:11:17.325Z,100829.69
2023-03-16T22:13:46.499Z,100830.36
2023-03-16T22:16:17.151Z,100825.32
2023-03-16T22:18:47.032Z,100828.58
2023-03-16T22:21:25.612Z,100837.06
2023-03-16T22:23:54.339Z,100832.05
2023-03-16T22:26:23.489Z,100824.66
2023-03-16T22:28:52.398Z,100826.63
2023-03-16T22:31:27.694Z,100823.92
2023-03-16T22:33:55.678Z,100827.85
2023-03-16T22:36:23.663Z,100834.60
2023-03-16T22:39:00.244Z,100838.10
2023-03-16T22:41:29.720Z,100836.27
2023-03-16T22:43:58.284Z,100839.00
2023-03-16T22:46:27.693Z,100838.63
2023-03-16T22:48:56.568Z,100835.05
2023-03-16T22:51:33.466Z,100835.88
2023-03-16T22:54:15.464Z,100837.63
2023-03-16T22:56:44.745Z,100841.50
2023-03-16T22:59:19.110Z,100836.04
2023-03-16T23:01:48.744Z,100844.20
2023-03-16T23:04:20.042Z,100846.41
2023-03-16T23:06:52.887Z,100850.51
2023-03-16T23:09:21.940Z,100854.94
2023-03-16T23:11:53.912Z,100852.96
2023-03-16T23:14:23.273Z,100849.44
2023-03-16T23:16:52.673Z,100850.45
2023-03-16T23:19:32.401Z,100842.23
2023-03-16T23:22:03.531Z,100831.46
2023-03-16T23:24:35.125Z,100831.13
2023-03-16T23:27:04.562Z,100830.52
2023-03-16T23:29:35.417Z,100827.78
2023-03-16T23:32:04.451Z,100826.33
2023-03-16T23:34:32.202Z,100824.31
2023-03-16T23:36:59.937Z,100819.22
2023-03-16T23:39:28.800Z,100816.25
2023-03-16T23:41:57.465Z,100812.80
2023-03-16T23:44:27.634Z,100804.23
2023-03-16T23:46:55.550Z,100805.63
2023-03-16T23:49:33.551Z,100809.11
2023-03-16T23:52:28.244Z,100808.59
2023-03-16T23:54:58.385Z,100805.05
2023-03-16T23:57:27.899Z,100808.22
2023-03-16T23:59:57.073Z,100808.73
